Terminal Aerodrome Forecast
Issued by NWS

Home | Current Version | Previous Version | Graphics & Text | Print | Product List | Glossary On
Versions: 1 2 3 4 5 6 7 8 9 10 11 12 13 14
592
FTUS43 KICT 261724 AAA
TAFCNU
TAF AMD
KCNU 261724Z 2617/2718 19014G20KT P6SM SCT250
     FM270100 17007KT P6SM BKN150
     FM270700 19008KT P6SM VCTS BKN150CB
     FM271600 25013KT P6SM BKN150=

USA.gov is the U.S. government's official web portal to all federal, state and local government web resources and services.